Time,TemperatureF,DewpointF,PressureIn,WindDirection,WindDirectionDegrees,WindSpeedMPH,WindSpeedGustMPH,Humidity,HourlyPrecipIn,Conditions,Clouds,dailyrainin,SoftwareType,DateUTC
2013-09-19 00:14:00,53.4,50.0,30.18,South,171,0.0,0.0,88,0.00,,,0.00,weatherlink.com 1.10,2013-09-19 04:14:00,
2013-09-19 00:29:00,52.9,50.0,30.18,South,175,0.0,2.0,90,0.00,,,0.00,weatherlink.com 1.10,2013-09-19 04:29:00,
2013-09-19 00:44:00,52.7,50.0,30.17,South,175,0.0,0.0,89,0.00,,,0.00,weatherlink.com 1.10,2013-09-19 04:44:00,
2013-09-19 00:59:00,52.4,50.0,30.17,South,175,0.0,0.0,91,0.00,,,0.00,weatherlink.com 1.10,2013-09-19 04:59:00,
2013-09-19 01:14:00,52.3,50.0,30.17,South,175,0.0,0.0,91,0.00,,,0.00,weatherlink.com 1.10,2013-09-19 05:14:00,
2013-09-19 01:29:00,52.1,50.0,30.17,South,175,0.0,1.0,92,0.00,,,0.00,weatherlink.com 1.10,2013-09-19 05:29:00,
2013-09-19 01:44:00,51.9,49.0,30.17,South,175,0.0,0.0,91,0.00,,,0.00,weatherlink.com 1.10,2013-09-19 05:44:00,
2013-09-19 01:59:00,52.1,50.0,30.17,South,175,0.0,0.0,92,0.00,,,0.00,weatherlink.com 1.10,2013-09-19 05:59:00,
2013-09-19 02:14:00,52.1,50.0,30.17,South,175,0.0,0.0,92,0.00,,,0.00,weatherlink.com 1.10,2013-09-19 06:14:00,
2013-09-19 02:30:00,52.3,50.0,30.16,South,175,0.0,0.0,92,0.00,,,0.00,weatherlink.com 1.10,2013-09-19 06:30:00,
2013-09-19 02:45:00,51.7,49.0,30.16,South,175,0.0,0.0,90,0.00,,,0.00,weatherlink.com 1.10,2013-09-19 06:45:00,
2013-09-19 03:00:00,51.3,49.0,30.16,South,175,0.0,0.0,92,0.00,,,0.00,weatherlink.com 1.10,2013-09-19 07:00:00,
2013-09-19 03:15:00,51.0,49.0,30.15,South,175,0.0,0.0,91,0.00,,,0.00,weatherlink.com 1.10,2013-09-19 07:15:00,
2013-09-19 03:30:00,50.8,49.0,30.15,South,175,0.0,0.0,93,0.00,,,0.00,weatherlink.com 1.10,2013-09-19 07:30:00,
2013-09-19 03:45:00,51.0,49.0,30.15,South,175,0.0,0.0,94,0.00,,,0.00,weatherlink.com 1.10,2013-09-19 07:45:00,
2013-09-19 04:00:00,51.1,50.0,30.15,South,175,0.0,0.0,95,0.00,,,0.00,weatherlink.com 1.10,2013-09-19 08:00:00,
2013-09-19 04:15:00,51.1,50.0,30.15,South,175,0.0,0.0,95,0.00,,,0.00,weatherlink.com 1.10,2013-09-19 08:15:00,
2013-09-19 04:30:00,51.4,50.0,30.15,South,175,0.0,1.0,94,0.00,,,0.00,weatherlink.com 1.10,2013-09-19 08:30:00,
2013-09-19 04:45:00,51.4,50.0,30.15,South,175,0.0,1.0,95,0.00,,,0.00,weatherlink.com 1.10,2013-09-19 08:45:00,
2013-09-19 05:00:00,51.5,50.0,30.15,South,176,0.0,2.0,94,0.00,,,0.00,weatherlink.com 1.10,2013-09-19 09:00:00,
2013-09-19 05:15:00,51.5,50.0,30.14,East,92,0.0,2.0,95,0.00,,,0.00,weatherlink.com 1.10,2013-09-19 09:15:00,
2013-09-19 05:30:00,50.8,49.0,30.14,East,92,1.0,1.0,93,0.00,,,0.00,weatherlink.com 1.10,2013-09-19 09:30:00,
2013-09-19 05:45:00,50.2,48.0,30.14,East,92,0.0,0.0,93,0.00,,,0.00,weatherlink.com 1.10,2013-09-19 09:45:00,
2013-09-19 06:00:00,49.6,48.0,30.14,East,92,0.0,1.0,94,0.00,,,0.00,weatherlink.com 1.10,2013-09-19 10:00:00,
2013-09-19 06:15:00,49.6,48.0,30.14,East,92,0.0,0.0,95,0.00,,,0.00,weatherlink.com 1.10,2013-09-19 10:15:00,
2013-09-19 06:30:00,49.6,48.0,30.15,East,92,0.0,0.0,94,0.00,,,0.00,weatherlink.com 1.10,2013-09-19 10:30:00,
2013-09-19 07:00:00,49.6,48.0,30.14,East,92,0.0,0.0,95,0.00,,,0.00,weatherlink.com 1.10,2013-09-19 11:00:00,
2013-09-19 07:15:00,49.6,48.0,30.15,East,92,0.0,0.0,95,0.00,,,0.00,weatherlink.com 1.10,2013-09-19 11:15:00,
2013-09-19 07:30:00,49.8,49.0,30.16,East,92,0.0,0.0,96,0.00,,,0.00,weatherlink.com 1.10,2013-09-19 11:30:00,
2013-09-19 07:45:00,50.7,50.0,30.16,East,92,0.0,0.0,97,0.00,,,0.00,weatherlink.com 1.10,2013-09-19 11:45:00,
2013-09-19 08:00:00,51.5,51.0,30.16,East,92,0.0,0.0,97,0.00,,,0.00,weatherlink.com 1.10,2013-09-19 12:00:00,
2013-09-19 08:15:00,52.1,51.0,30.15,East,92,0.0,1.0,96,0.00,,,0.00,weatherlink.com 1.10,2013-09-19 12:15:00,
2013-09-19 08:30:00,52.6,51.0,30.16,East,92,0.0,1.0,95,0.00,,,0.00,weatherlink.com 1.10,2013-09-19 12:30:00,
2013-09-19 08:45:00,53.2,52.0,30.15,East,92,0.0,0.0,94,0.00,,,0.00,weatherlink.com 1.10,2013-09-19 12:45:00,
2013-09-19 09:00:00,54.4,53.0,30.16,East,92,1.0,1.0,94,0.00,,,0.00,weatherlink.com 1.10,2013-09-19 13:00:00,
2013-09-19 09:15:00,55.5,54.0,30.16,East,92,0.0,0.0,93,0.00,,,0.00,weatherlink.com 1.10,2013-09-19 13:15:00,
2013-09-19 09:30:00,56.7,54.0,30.17,East,92,0.0,2.0,91,0.00,,,0.00,weatherlink.com 1.10,2013-09-19 13:30:00,
2013-09-19 09:45:00,58.2,55.0,30.16,East,92,0.0,2.0,89,0.00,,,0.00,weatherlink.com 1.10,2013-09-19 13:45:00,
2013-09-19 10:00:00,60.3,55.0,30.16,West,261,0.0,4.0,82,0.00,,,0.00,weatherlink.com 1.10,2013-09-19 14:00:00,
2013-09-19 10:15:00,62.8,56.0,30.16,West,266,1.0,2.0,79,0.00,,,0.00,weatherlink.com 1.10,2013-09-19 14:15:00,
2013-09-19 10:30:00,64.3,57.0,30.16,NE,56,0.0,2.0,77,0.00,,,0.00,weatherlink.com 1.10,2013-09-19 14:30:00,
2013-09-19 10:45:00,65.5,57.0,30.16,ESE,106,2.0,3.0,74,0.00,,,0.00,weatherlink.com 1.10,2013-09-19 14:45:00,
2013-09-19 11:00:00,66.0,57.0,30.16,NNE,22,0.0,7.0,72,0.00,,,0.00,weatherlink.com 1.10,2013-09-19 15:00:00,
2013-09-19 11:15:00,66.6,58.0,30.16,SW,230,1.0,3.0,73,0.00,,,0.00,weatherlink.com 1.10,2013-09-19 15:15:00,
2013-09-19 11:30:00,66.0,58.0,30.16,SW,235,0.0,5.0,74,0.00,,,0.00,weatherlink.com 1.10,2013-09-19 15:30:00,
2013-09-19 11:46:00,66.2,57.0,30.16,SSE,148,0.0,4.0,72,0.00,,,0.00,weatherlink.com 1.10,2013-09-19 15:46:00,
2013-09-19 12:00:00,67.2,58.0,30.15,SSE,149,0.0,2.0,72,0.00,,,0.00,weatherlink.com 1.10,2013-09-19 16:00:00,
2013-09-19 12:16:00,67.6,58.0,30.15,West,269,1.0,4.0,72,0.00,,,0.00,weatherlink.com 1.10,2013-09-19 16:16:00,
2013-09-19 12:31:00,68.5,61.0,30.14,South,174,1.0,2.0,76,0.00,,,0.00,weatherlink.com 1.10,2013-09-19 16:31:00,
2013-09-19 12:46:00,69.7,59.0,30.14,NNW,339,1.0,2.0,69,0.00,,,0.00,weatherlink.com 1.10,2013-09-19 16:46:00,
2013-09-19 13:01:00,70.0,59.0,30.13,South,180,0.0,3.0,68,0.00,,,0.00,weatherlink.com 1.10,2013-09-19 17:01:00,
2013-09-19 13:16:00,69.9,59.0,30.13,SE,134,0.0,3.0,69,0.00,,,0.00,weatherlink.com 1.10,2013-09-19 17:16:00,
2013-09-19 13:31:00,70.7,60.0,30.12,NNE,13,1.0,3.0,68,0.00,,,0.00,weatherlink.com 1.10,2013-09-19 17:31:00,
2013-09-19 13:46:00,72.0,60.0,30.11,SSE,148,0.0,5.0,66,0.00,,,0.00,weatherlink.com 1.10,2013-09-19 17:46:00,
2013-09-19 14:01:00,73.0,60.0,30.11,WNW,294,0.0,4.0,64,0.00,,,0.00,weatherlink.com 1.10,2013-09-19 18:01:00,
2013-09-19 14:16:00,74.1,61.0,30.10,SSE,157,0.0,3.0,63,0.00,,,0.00,weatherlink.com 1.10,2013-09-19 18:16:00,
2013-09-19 14:31:00,74.2,60.0,30.10,SSW,192,3.0,3.0,62,0.00,,,0.00,weatherlink.com 1.10,2013-09-19 18:31:00,
2013-09-19 14:46:00,74.5,59.0,30.09,SE,131,0.0,3.0,59,0.00,,,0.00,weatherlink.com 1.10,2013-09-19 18:46:00,
2013-09-19 15:01:00,74.6,60.0,30.09,SE,130,1.0,3.0,61,0.00,,,0.00,weatherlink.com 1.10,2013-09-19 19:01:00,
2013-09-19 15:16:00,74.4,60.0,30.08,West,274,0.0,4.0,61,0.00,,,0.00,weatherlink.com 1.10,2013-09-19 19:16:00,
2013-09-19 15:31:00,75.2,60.0,30.08,SE,146,1.0,4.0,60,0.00,,,0.00,weatherlink.com 1.10,2013-09-19 19:31:00,
2013-09-19 15:46:00,75.3,60.0,30.08,SW,227,0.0,4.0,60,0.00,,,0.00,weatherlink.com 1.10,2013-09-19 19:46:00,
2013-09-19 16:01:00,75.2,62.0,30.07,East,93,0.0,2.0,63,0.00,,,0.00,weatherlink.com 1.10,2013-09-19 20:01:00,
2013-09-19 16:16:00,75.7,61.0,30.07,South,190,1.0,3.0,60,0.00,,,0.00,weatherlink.com 1.10,2013-09-19 20:16:00,
2013-09-19 16:31:00,75.3,60.0,30.06,West,259,1.0,3.0,60,0.00,,,0.00,weatherlink.com 1.10,2013-09-19 20:31:00,
2013-09-19 16:46:00,75.4,59.0,30.06,SSW,209,1.0,2.0,58,0.00,,,0.00,weatherlink.com 1.10,2013-09-19 20:46:00,
2013-09-19 17:01:00,75.1,59.0,30.06,SSW,209,0.0,3.0,58,0.00,,,0.00,weatherlink.com 1.10,2013-09-19 21:01:00,
2013-09-19 17:16:00,73.4,59.0,30.07,SSW,209,0.0,3.0,61,0.00,,,0.00,weatherlink.com 1.10,2013-09-19 21:16:00,
2013-09-19 17:31:00,72.1,59.0,30.07,SSW,208,0.0,2.0,64,0.00,,,0.00,weatherlink.com 1.10,2013-09-19 21:31:00,
2013-09-19 17:46:00,71.0,59.0,30.07,SSW,208,0.0,2.0,67,0.00,,,0.00,weatherlink.com 1.10,2013-09-19 21:46:00,
2013-09-19 18:01:00,70.1,59.0,30.07,SSW,208,0.0,0.0,69,0.00,,,0.00,weatherlink.com 1.10,2013-09-19 22:01:00,
2013-09-19 18:16:00,69.2,60.0,30.07,SSW,208,0.0,0.0,72,0.00,,,0.00,weatherlink.com 1.10,2013-09-19 22:16:00,
2013-09-19 18:31:00,68.6,60.0,30.07,SSW,208,0.0,0.0,73,0.00,,,0.00,weatherlink.com 1.10,2013-09-19 22:31:00,
2013-09-19 18:46:00,67.9,60.0,30.07,SSW,208,0.0,0.0,75,0.00,,,0.00,weatherlink.com 1.10,2013-09-19 22:46:00,
2013-09-19 19:01:00,67.2,59.0,30.07,SSW,208,0.0,0.0,76,0.00,,,0.00,weatherlink.com 1.10,2013-09-19 23:01:00,
2013-09-19 19:16:00,66.2,59.0,30.07,SSW,208,0.0,0.0,78,0.00,,,0.00,weatherlink.com 1.10,2013-09-19 23:16:00,
2013-09-19 19:31:00,65.4,59.0,30.07,SSW,208,0.0,0.0,80,0.00,,,0.00,weatherlink.com 1.10,2013-09-19 23:31:00,
2013-09-19 19:46:00,64.8,59.0,30.07,SSW,208,0.0,0.0,82,0.00,,,0.00,weatherlink.com 1.10,2013-09-19 23:46:00,
2013-09-19 20:01:00,64.2,59.0,30.07,SSW,208,0.0,0.0,83,0.00,,,0.00,weatherlink.com 1.10,2013-09-20 00:01:00,
2013-09-19 20:16:00,63.5,59.0,30.07,SSW,208,0.0,0.0,84,0.00,,,0.00,weatherlink.com 1.10,2013-09-20 00:16:00,
2013-09-19 20:31:00,63.0,59.0,30.08,SSW,208,0.0,0.0,85,0.00,,,0.00,weatherlink.com 1.10,2013-09-20 00:31:00,
2013-09-19 20:46:00,62.6,58.0,30.08,SSW,208,0.0,0.0,86,0.00,,,0.00,weatherlink.com 1.10,2013-09-20 00:46:00,
2013-09-19 21:01:00,62.5,58.0,30.08,SSW,208,0.0,0.0,86,0.00,,,0.00,weatherlink.com 1.10,2013-09-20 01:01:00,
2013-09-19 21:16:00,62.2,58.0,30.07,SSW,208,0.0,0.0,86,0.00,,,0.00,weatherlink.com 1.10,2013-09-20 01:16:00,
2013-09-19 21:31:00,62.0,58.0,30.07,SSW,208,0.0,0.0,87,0.00,,,0.00,weatherlink.com 1.10,2013-09-20 01:31:00,
2013-09-19 21:46:00,61.5,58.0,30.07,SSW,208,0.0,0.0,88,0.00,,,0.00,weatherlink.com 1.10,2013-09-20 01:46:00,
2013-09-19 22:01:00,61.1,58.0,30.06,SSW,208,0.0,0.0,89,0.00,,,0.00,weatherlink.com 1.10,2013-09-20 02:01:00,
2013-09-19 22:16:00,60.8,58.0,30.06,SSW,208,0.0,0.0,90,0.00,,,0.00,weatherlink.com 1.10,2013-09-20 02:16:00,
2013-09-19 22:31:00,60.6,58.0,30.06,SSW,208,0.0,1.0,91,0.00,,,0.00,weatherlink.com 1.10,2013-09-20 02:31:00,
2013-09-19 22:46:00,60.2,58.0,30.05,SSW,208,0.0,0.0,91,0.00,,,0.00,weatherlink.com 1.10,2013-09-20 02:46:00,
2013-09-19 23:01:00,59.8,58.0,30.06,SSW,208,0.0,2.0,92,0.00,,,0.00,weatherlink.com 1.10,2013-09-20 03:01:00,
2013-09-19 23:16:00,59.6,57.0,30.05,SSW,208,0.0,0.0,92,0.00,,,0.00,weatherlink.com 1.10,2013-09-20 03:16:00,
2013-09-19 23:31:00,59.1,57.0,30.05,SSW,208,0.0,1.0,92,0.00,,,0.00,weatherlink.com 1.10,2013-09-20 03:31:00,
2013-09-19 23:46:00,59.3,57.0,30.05,SSW,208,0.0,2.0,93,0.00,,,0.00,weatherlink.com 1.10,2013-09-20 03:46:00,